createdAt,value
2022-09-23T00:01:25.877Z,95.50
2022-09-23T00:03:54.419Z,95.50
2022-09-23T00:06:25.501Z,95.50
2022-09-23T00:08:53.731Z,95.50
2022-09-23T00:11:23.915Z,95.50
2022-09-23T00:13:53.694Z,95.50
2022-09-23T00:16:24.179Z,95.50
2022-09-23T00:18:52.394Z,95.50
2022-09-23T00:21:21.790Z,95.50
2022-09-23T00:23:51.715Z,95.50
2022-09-23T00:26:22.306Z,95.50
2022-09-23T00:28:51.264Z,95.50
2022-09-23T00:31:21.945Z,95.50
2022-09-23T00:33:54.483Z,95.50
2022-09-23T00:36:22.430Z,95.50
2022-09-23T00:38:51.818Z,95.50
2022-09-23T00:41:20.033Z,95.50
2022-09-23T00:43:50.013Z,95.50
2022-09-23T00:46:22.726Z,95.50
2022-09-23T00:48:56.696Z,95.50
2022-09-23T00:51:28.583Z,95.50
2022-09-23T00:53:58.050Z,95.50
2022-09-23T00:56:26.274Z,95.50
2022-09-23T00:58:55.321Z,95.50
2022-09-23T01:01:25.722Z,95.50
2022-09-23T01:03:55.465Z,95.50
2022-09-23T01:06:23.437Z,95.50
2022-09-23T01:08:51.993Z,95.50
2022-09-23T01:11:43.633Z,95.50
2022-09-23T01:14:26.283Z,95.50
2022-09-23T01:17:02.813Z,95.50
2022-09-23T01:19:47.530Z,95.50
2022-09-23T01:22:23.816Z,95.50
2022-09-23T01:25:22.656Z,95.50
2022-09-23T01:28:17.722Z,95.50
2022-09-23T01:30:52.730Z,95.50
2022-09-23T01:33:25.613Z,95.50
2022-09-23T01:36:13.307Z,95.50
2022-09-23T01:38:47.845Z,95.50
2022-09-23T01:41:29.308Z,95.50
2022-09-23T01:44:05.823Z,95.50
2022-09-23T01:46:42.618Z,95.50
2022-09-23T01:49:16.198Z,95.50
2022-09-23T01:51:47.750Z,95.50
2022-09-23T01:54:18.628Z,95.50
2022-09-23T01:56:53.253Z,95.50
2022-09-23T01:59:27.405Z,95.50
2022-09-23T02:02:01.209Z,95.50
2022-09-23T02:04:37.017Z,95.50
2022-09-23T02:07:10.539Z,95.50
2022-09-23T02:09:43.536Z,95.50
2022-09-23T02:12:15.605Z,95.50
2022-09-23T02:14:50.009Z,95.50
2022-09-23T02:17:25.456Z,95.50
2022-09-23T02:19:57.968Z,95.50
2022-09-23T02:22:30.549Z,95.50
2022-09-23T02:24:59.116Z,95.50
2022-09-23T02:27:33.436Z,95.50
2022-09-23T02:30:08.910Z,95.50
2022-09-23T02:32:46.381Z,95.50
2022-09-23T02:35:19.746Z,95.50
2022-09-23T02:37:55.582Z,95.50
2022-09-23T02:40:28.490Z,95.50
2022-09-23T02:43:06.741Z,95.50
2022-09-23T02:45:35.538Z,95.50
2022-09-23T02:48:08.660Z,95.50
2022-09-23T02:50:38.015Z,95.50
2022-09-23T02:53:07.273Z,95.50
2022-09-23T02:55:35.243Z,95.50
2022-09-23T02:58:05.490Z,95.50
2022-09-23T03:00:43.438Z,95.50
2022-09-23T03:03:27.283Z,95.50
2022-09-23T03:05:58.588Z,95.50
2022-09-23T03:08:37.909Z,95.50
2022-09-23T03:11:08.656Z,95.50
2022-09-23T03:13:52.336Z,95.50
2022-09-23T03:16:28.072Z,95.50
2022-09-23T03:19:06.640Z,95.50
2022-09-23T03:21:41.092Z,95.50
2022-09-23T03:24:14.249Z,95.50
2022-09-23T03:26:47.374Z,95.50
2022-09-23T03:29:16.971Z,95.50
2022-09-23T03:31:46.015Z,95.50
2022-09-23T03:34:19.217Z,95.50
2022-09-23T03:36:53.938Z,95.50
2022-09-23T03:39:31.406Z,95.50
2022-09-23T03:42:03.405Z,95.50
2022-09-23T03:44:37.842Z,95.50
2022-09-23T03:47:06.777Z,95.50
2022-09-23T03:49:39.227Z,95.50
2022-09-23T03:52:07.623Z,95.50
2022-09-23T03:54:35.634Z,95.50
2022-09-23T03:57:04.398Z,95.50
2022-09-23T03:59:32.914Z,95.50
2022-09-23T04:02:01.913Z,95.50
2022-09-23T04:04:33.419Z,95.50
2022-09-23T04:07:03.267Z,95.50
2022-09-23T04:09:31.534Z,95.50
2022-09-23T04:11:59.511Z,95.50
2022-09-23T04:14:27.568Z,95.50
2022-09-23T04:16:55.607Z,95.50
2022-09-23T04:19:23.621Z,95.50
2022-09-23T04:21:51.661Z,95.50
2022-09-23T04:24:21.766Z,95.50
2022-09-23T04:26:52.575Z,95.50
2022-09-23T04:29:20.804Z,95.50
2022-09-23T04:31:49.282Z,95.50
2022-09-23T04:34:17.688Z,95.50
2022-09-23T04:36:46.433Z,95.50
2022-09-23T04:39:16.033Z,95.50
2022-09-23T04:41:46.319Z,95.50
2022-09-23T04:44:15.254Z,95.50
2022-09-23T04:46:44.841Z,95.50
2022-09-23T04:49:13.006Z,95.50
2022-09-23T04:51:43.297Z,95.50
2022-09-23T04:54:11.739Z,95.50
2022-09-23T04:56:40.062Z,95.50
2022-09-23T04:59:09.388Z,95.50
2022-09-23T05:01:38.292Z,95.50
2022-09-23T05:04:08.633Z,95.50
2022-09-23T05:06:37.560Z,95.50
2022-09-23T05:09:09.210Z,95.50
2022-09-23T05:11:37.568Z,95.50
2022-09-23T05:14:05.586Z,95.50
2022-09-23T05:16:35.877Z,95.50
2022-09-23T05:19:04.097Z,95.50
2022-09-23T05:21:32.225Z,95.50
2022-09-23T05:24:00.845Z,95.50
2022-09-23T05:26:30.662Z,95.50
2022-09-23T05:28:59.535Z,95.50
2022-09-23T05:31:29.403Z,95.50
2022-09-23T05:34:00.431Z,95.50
2022-09-23T05:36:34.285Z,95.50
2022-09-23T05:39:04.321Z,95.50
2022-09-23T05:41:32.351Z,95.50
2022-09-23T05:44:00.729Z,95.50
2022-09-23T05:46:30.309Z,95.50
2022-09-23T05:49:02.907Z,95.50
2022-09-23T05:51:32.388Z,95.50
2022-09-23T05:54:04.261Z,95.50
2022-09-23T05:56:34.004Z,95.50
2022-09-23T05:59:03.241Z,95.50
2022-09-23T06:01:34.102Z,95.50
2022-09-23T06:04:05.743Z,95.50
2022-09-23T06:06:36.134Z,95.50
2022-09-23T06:09:05.013Z,95.50
2022-09-23T06:11:34.507Z,95.50
2022-09-23T06:14:03.191Z,95.50
2022-09-23T06:16:33.378Z,95.50
2022-09-23T06:19:06.441Z,95.50
2022-09-23T06:21:36.806Z,95.50
2022-09-23T06:24:05.426Z,95.50
2022-09-23T06:26:35.104Z,95.50
2022-09-23T06:29:04.357Z,95.50
2022-09-23T06:31:32.985Z,95.50
2022-09-23T06:34:12.172Z,95.50
2022-09-23T06:36:45.394Z,95.50
2022-09-23T06:39:14.603Z,95.50
2022-09-23T06:41:42.587Z,95.50
2022-09-23T06:44:10.768Z,95.50
2022-09-23T06:46:38.971Z,95.50
2022-09-23T06:49:07.080Z,95.50
2022-09-23T06:51:35.312Z,95.50
2022-09-23T06:54:04.864Z,95.50
2022-09-23T06:56:37.971Z,95.50
2022-09-23T06:59:08.312Z,95.50
2022-09-23T07:01:36.344Z,95.50
2022-09-23T07:04:04.621Z,95.50
2022-09-23T07:06:32.746Z,95.50
2022-09-23T07:09:01.072Z,95.50
2022-09-23T07:11:30.677Z,95.50
2022-09-23T07:13:58.755Z,95.50
2022-09-23T07:16:26.819Z,95.10
2022-09-23T07:18:55.723Z,94.40
2022-09-23T07:21:24.204Z,93.80
2022-09-23T07:23:52.481Z,93.60
2022-09-23T07:26:21.412Z,93.40
2022-09-23T07:28:54.860Z,92.40
2022-09-23T07:31:35.449Z,91.60
2022-09-23T07:34:05.178Z,89.80
2022-09-23T07:36:33.389Z,89.80
2022-09-23T07:39:03.428Z,88.60
2022-09-23T07:41:33.496Z,87.30
2022-09-23T07:44:03.625Z,86.50
2022-09-23T07:46:34.039Z,86.50
2022-09-23T07:49:03.033Z,85.70
2022-09-23T07:51:36.290Z,84.50
2022-09-23T07:54:07.434Z,83.80
2022-09-23T07:56:36.216Z,82.60
2022-09-23T07:59:08.542Z,82.00
2022-09-23T08:01:38.675Z,80.80
2022-09-23T08:04:11.579Z,78.60
2022-09-23T08:06:43.051Z,78.10
2022-09-23T08:09:11.198Z,78.30
2022-09-23T08:11:41.800Z,79.70
2022-09-23T08:14:13.489Z,81.00
2022-09-23T08:16:42.053Z,81.00
2022-09-23T08:19:10.446Z,81.00
2022-09-23T08:21:39.307Z,80.70
2022-09-23T08:24:07.868Z,79.60
2022-09-23T08:26:36.517Z,79.60
2022-09-23T08:29:04.792Z,78.60
2022-09-23T08:31:34.149Z,78.20
2022-09-23T08:34:02.407Z,77.50
2022-09-23T08:36:30.549Z,77.20
2022-09-23T08:38:58.688Z,76.10
2022-09-23T08:41:37.080Z,75.90
2022-09-23T08:44:11.954Z,77.00
2022-09-23T08:46:46.441Z,75.90
2022-09-23T08:49:23.276Z,74.80
2022-09-23T08:51:54.858Z,74.80
2022-09-23T08:54:23.362Z,74.80
2022-09-23T08:56:53.253Z,73.60
2022-09-23T08:59:28.831Z,73.60
2022-09-23T09:02:01.156Z,73.00
2022-09-23T09:04:39.844Z,72.50
2022-09-23T09:07:35.655Z,73.30
2022-09-23T09:10:11.658Z,72.70
2022-09-23T09:12:44.294Z,71.90
2022-09-23T09:15:15.068Z,71.00
2022-09-23T09:17:59.308Z,71.50
2022-09-23T09:20:38.068Z,70.40
2022-09-23T09:23:21.488Z,69.10
2022-09-23T09:25:51.401Z,69.50
2022-09-23T09:28:24.616Z,69.80
2022-09-23T09:30:57.384Z,69.50
2022-09-23T09:33:31.816Z,69.40
2022-09-23T09:36:16.234Z,69.80
2022-09-23T09:38:44.386Z,70.20
2022-09-23T09:41:17.035Z,69.30
2022-09-23T09:43:56.319Z,69.80
2022-09-23T09:46:54.573Z,70.60
2022-09-23T09:49:38.115Z,71.30
2022-09-23T09:52:20.697Z,73.30
2022-09-23T09:54:49.682Z,74.40
2022-09-23T09:57:33.649Z,74.50
2022-09-23T10:00:36.159Z,74.60
2022-09-23T10:03:09.660Z,74.10
2022-09-23T10:05:52.334Z,74.30
2022-09-23T10:08:27.241Z,74.30
2022-09-23T10:11:03.297Z,73.90
2022-09-23T10:13:32.301Z,74.00
2022-09-23T10:16:02.925Z,74.60
2022-09-23T10:18:37.403Z,74.90
2022-09-23T10:21:10.836Z,73.80
2022-09-23T10:23:42.335Z,69.50
2022-09-23T10:26:12.192Z,67.40
2022-09-23T10:28:48.878Z,65.20
2022-09-23T10:31:22.413Z,63.50
2022-09-23T10:33:51.913Z,64.60
2022-09-23T10:36:21.955Z,64.70
2022-09-23T10:38:53.337Z,65.10
2022-09-23T10:41:49.971Z,67.20
2022-09-23T10:44:48.842Z,69.20
2022-09-23T10:47:30.080Z,69.60
2022-09-23T10:50:20.697Z,69.80
2022-09-23T10:53:02.289Z,69.70
2022-09-23T10:55:46.109Z,70.00
2022-09-23T10:58:39.569Z,69.10
2022-09-23T11:01:17.869Z,68.50
2022-09-23T11:04:18.951Z,67.60
2022-09-23T11:07:07.203Z,65.80
2022-09-23T11:09:50.110Z,66.00
2022-09-23T11:12:31.203Z,66.30
2022-09-23T11:15:14.460Z,67.00
2022-09-23T11:18:08.010Z,68.30
2022-09-23T11:20:45.751Z,69.20
2022-09-23T11:23:37.455Z,69.40
2022-09-23T11:26:17.999Z,69.80
2022-09-23T11:29:16.256Z,70.40
2022-09-23T11:31:59.295Z,71.30
2022-09-23T11:34:52.674Z,69.80
2022-09-23T11:37:27.346Z,69.50
2022-09-23T11:40:03.339Z,69.40
2022-09-23T11:42:36.516Z,69.70
2022-09-23T11:45:14.935Z,71.10
2022-09-23T11:47:48.204Z,72.30
2022-09-23T11:50:22.552Z,72.60
2022-09-23T11:52:58.626Z,72.20
2022-09-23T11:55:31.542Z,71.60
2022-09-23T11:58:14.807Z,71.60
2022-09-23T12:00:59.271Z,69.30
2022-09-23T12:03:44.375Z,67.20
2022-09-23T12:06:18.215Z,66.20
2022-09-23T12:08:46.230Z,65.50
2022-09-23T12:11:26.123Z,65.50
2022-09-23T12:14:03.132Z,63.80
2022-09-23T12:16:50.677Z,63.70
2022-09-23T12:19:33.176Z,63.30
2022-09-23T12:22:26.907Z,64.30
2022-09-23T12:25:00.769Z,65.80
2022-09-23T12:27:38.414Z,65.80
2022-09-23T12:30:15.653Z,65.70
2022-09-23T12:32:44.548Z,65.80
2022-09-23T12:35:23.251Z,65.80
2022-09-23T12:37:51.604Z,65.40
2022-09-23T12:40:23.526Z,65.50
2022-09-23T12:42:52.265Z,64.60
2022-09-23T12:45:39.706Z,63.80
2022-09-23T12:48:40.525Z,64.80
2022-09-23T12:51:17.828Z,66.80
2022-09-23T12:54:22.307Z,68.80
2022-09-23T12:57:05.261Z,68.10
2022-09-23T12:59:49.266Z,66.40
2022-09-23T13:02:35.650Z,65.20
2022-09-23T13:05:39.131Z,65.60
2022-09-23T13:08:10.491Z,64.40
2022-09-23T13:10:44.381Z,64.70
2022-09-23T13:13:21.980Z,66.30
2022-09-23T13:15:50.096Z,67.60
2022-09-23T13:18:57.115Z,67.80
2022-09-23T13:22:00.349Z,67.20
2022-09-23T13:24:43.049Z,66.60
2022-09-23T13:27:21.818Z,66.20
2022-09-23T13:29:54.531Z,67.30
2022-09-23T13:32:27.885Z,67.90
2022-09-23T13:35:01.094Z,68.40
2022-09-23T13:37:33.476Z,68.80
2022-09-23T13:40:18.792Z,68.60
2022-09-23T13:42:52.345Z,69.40
2022-09-23T13:45:22.893Z,70.00
2022-09-23T13:47:52.548Z,70.00
2022-09-23T13:50:24.013Z,71.30
2022-09-23T13:52:54.705Z,71.70
2022-09-23T13:55:27.841Z,71.40
2022-09-23T13:58:04.159Z,71.40
2022-09-23T14:00:38.297Z,71.50
2022-09-23T14:03:31.225Z,71.40
2022-09-23T14:06:08.529Z,70.90
2022-09-23T14:08:36.942Z,70.80
2022-09-23T14:11:06.257Z,70.60
2022-09-23T14:13:44.065Z,70.60
2022-09-23T14:16:15.767Z,70.60
2022-09-23T14:18:46.683Z,71.10
2022-09-23T14:21:34.754Z,71.50
2022-09-23T14:24:17.027Z,71.60
2022-09-23T14:26:48.054Z,71.60
2022-09-23T14:29:18.526Z,72.10
2022-09-23T14:31:56.909Z,72.10
2022-09-23T14:34:46.491Z,71.90
2022-09-23T14:37:40.183Z,71.90
2022-09-23T14:40:14.309Z,72.00
2022-09-23T14:42:46.377Z,71.70
2022-09-23T14:45:18.448Z,72.10
2022-09-23T14:47:49.716Z,72.10
2022-09-23T14:50:38.833Z,72.60
2022-09-23T14:53:36.386Z,72.70
2022-09-23T14:56:16.533Z,73.00
2022-09-23T14:58:53.349Z,72.90
2022-09-23T15:01:42.044Z,73.10
2022-09-23T15:04:30.450Z,73.90
2022-09-23T15:07:01.877Z,74.00
2022-09-23T15:09:33.984Z,74.10
2022-09-23T15:12:04.020Z,74.50
2022-09-23T15:14:38.773Z,75.10
2022-09-23T15:17:19.550Z,75.10
2022-09-23T15:19:52.670Z,75.20
2022-09-23T15:22:20.947Z,75.80
2022-09-23T15:24:53.331Z,76.20
2022-09-23T15:27:32.618Z,76.40
2022-09-23T15:30:15.932Z,76.60
2022-09-23T15:32:44.504Z,77.00
2022-09-23T15:35:16.742Z,77.20
2022-09-23T15:37:46.112Z,77.60
2022-09-23T15:40:24.018Z,77.70
2022-09-23T15:42:55.434Z,77.70
2022-09-23T15:45:31.242Z,78.10
2022-09-23T15:48:03.236Z,78.70
2022-09-23T15:50:31.664Z,79.00
2022-09-23T15:53:00.075Z,79.20
2022-09-23T15:55:29.785Z,79.60
2022-09-23T15:57:57.763Z,79.80
2022-09-23T16:00:25.782Z,80.20
2022-09-23T16:02:54.360Z,80.30
2022-09-23T16:05:27.309Z,80.50
2022-09-23T16:07:55.277Z,80.60
2022-09-23T16:10:23.767Z,81.20
2022-09-23T16:12:54.995Z,81.50
2022-09-23T16:15:25.056Z,81.70
2022-09-23T16:17:53.082Z,81.80
2022-09-23T16:20:21.214Z,81.90
2022-09-23T16:22:54.763Z,81.90
2022-09-23T16:25:27.291Z,82.20
2022-09-23T16:27:57.071Z,82.30
2022-09-23T16:30:26.385Z,82.90
2022-09-23T16:32:54.611Z,83.10
2022-09-23T16:35:24.407Z,83.40
2022-09-23T16:37:53.171Z,83.80
2022-09-23T16:40:23.190Z,83.90
2022-09-23T16:42:54.184Z,84.20
2022-09-23T16:45:24.035Z,84.70
2022-09-23T16:47:52.928Z,85.00
2022-09-23T16:50:23.595Z,85.40
2022-09-23T16:52:56.184Z,85.80
2022-09-23T16:55:27.183Z,86.00
2022-09-23T16:57:55.666Z,86.30
2022-09-23T17:00:42.903Z,86.70
2022-09-23T17:03:30.924Z,87.00
2022-09-23T17:06:00.684Z,87.40
2022-09-23T17:08:30.957Z,87.70
2022-09-23T17:11:01.135Z,88.00
2022-09-23T17:13:31.151Z,88.30
2022-09-23T17:16:01.121Z,88.70
2022-09-23T17:18:29.757Z,88.80
2022-09-23T17:20:59.274Z,89.20
2022-09-23T17:23:28.335Z,89.80
2022-09-23T17:25:56.620Z,90.00
2022-09-23T17:28:25.304Z,90.10
2022-09-23T17:30:58.675Z,90.40
2022-09-23T17:33:29.045Z,90.60
2022-09-23T17:35:57.846Z,91.00
2022-09-23T17:38:29.148Z,91.30
2022-09-23T17:40:59.128Z,91.30
2022-09-23T17:43:27.670Z,91.40
2022-09-23T17:45:57.438Z,92.00
2022-09-23T17:48:27.146Z,92.70
2022-09-23T17:50:56.389Z,93.20
2022-09-23T17:53:24.532Z,94.10
2022-09-23T17:55:59.506Z,94.70
2022-09-23T17:58:28.822Z,95.50
2022-09-23T18:00:57.524Z,95.30
2022-09-23T18:03:28.829Z,95.50
2022-09-23T18:06:07.334Z,95.30
2022-09-23T18:08:35.388Z,95.50
2022-09-23T18:11:12.548Z,95.50
2022-09-23T18:13:40.708Z,95.50
2022-09-23T18:16:08.838Z,95.50
2022-09-23T18:18:38.179Z,95.50
2022-09-23T18:21:06.789Z,95.50
2022-09-23T18:23:34.958Z,95.50
2022-09-23T18:26:02.907Z,95.50
2022-09-23T18:28:34.614Z,95.50
2022-09-23T18:31:03.014Z,95.50
2022-09-23T18:33:30.982Z,95.50
2022-09-23T18:36:02.166Z,95.50
2022-09-23T18:38:30.155Z,95.50
2022-09-23T18:40:59.520Z,95.50
2022-09-23T18:43:41.571Z,95.50
2022-09-23T18:46:14.027Z,95.50
2022-09-23T18:49:00.090Z,95.50
2022-09-23T18:51:30.356Z,95.50
2022-09-23T18:53:59.420Z,95.50
2022-09-23T18:56:33.588Z,95.50
2022-09-23T18:59:02.191Z,95.50
2022-09-23T19:01:30.332Z,95.50
2022-09-23T19:04:00.241Z,95.50
2022-09-23T19:06:32.401Z,95.50
2022-09-23T19:09:00.452Z,95.50
2022-09-23T19:11:28.707Z,95.50
2022-09-23T19:13:58.524Z,95.50
2022-09-23T19:16:27.289Z,95.50
2022-09-23T19:18:55.498Z,95.50
2022-09-23T19:21:24.202Z,95.50
2022-09-23T19:23:55.260Z,95.50
2022-09-23T19:26:25.875Z,95.50
2022-09-23T19:28:55.672Z,95.50
2022-09-23T19:31:26.438Z,95.50
2022-09-23T19:33:56.746Z,95.50
2022-09-23T19:36:26.693Z,95.50
2022-09-23T19:38:58.021Z,95.50
2022-09-23T19:41:28.076Z,95.50
2022-09-23T19:44:02.361Z,95.50
2022-09-23T19:46:32.509Z,95.50
2022-09-23T19:49:01.594Z,95.50
2022-09-23T19:51:29.943Z,95.50
2022-09-23T19:53:59.792Z,95.50
2022-09-23T19:56:27.892Z,95.50
2022-09-23T19:58:58.183Z,95.50
2022-09-23T20:01:27.744Z,95.50
2022-09-23T20:03:55.781Z,95.50
2022-09-23T20:06:24.294Z,95.50
2022-09-23T20:08:52.690Z,95.50
2022-09-23T20:11:28.397Z,95.50
2022-09-23T20:14:01.191Z,95.50
2022-09-23T20:16:32.102Z,95.50
2022-09-23T20:19:01.097Z,95.50
2022-09-23T20:21:29.916Z,95.50
2022-09-23T20:23:58.203Z,95.50
2022-09-23T20:26:45.073Z,95.50
2022-09-23T20:29:13.210Z,95.50
2022-09-23T20:31:41.488Z,95.50
2022-09-23T20:34:10.906Z,95.50
2022-09-23T20:36:41.309Z,95.50
2022-09-23T20:39:10.635Z,95.50
2022-09-23T20:41:40.497Z,95.50
2022-09-23T20:44:12.275Z,95.50
2022-09-23T20:46:46.746Z,95.50
2022-09-23T20:49:16.352Z,95.50
2022-09-23T20:51:44.411Z,95.50
2022-09-23T20:54:13.073Z,95.50
2022-09-23T20:56:42.442Z,95.50
2022-09-23T20:59:10.662Z,95.50
2022-09-23T21:01:38.726Z,95.50
2022-09-23T21:04:08.054Z,95.50
2022-09-23T21:06:36.820Z,95.50
2022-09-23T21:09:06.062Z,95.50
2022-09-23T21:11:34.233Z,95.50
2022-09-23T21:14:03.680Z,95.50
2022-09-23T21:16:31.789Z,95.50
2022-09-23T21:19:00.222Z,95.50
2022-09-23T21:21:28.727Z,95.50
2022-09-23T21:24:17.409Z,95.50
2022-09-23T21:26:47.406Z,95.50
2022-09-23T21:29:16.905Z,95.50
2022-09-23T21:31:45.227Z,95.50
2022-09-23T21:34:14.554Z,95.50
2022-09-23T21:36:44.289Z,95.50
2022-09-23T21:39:13.433Z,95.50
2022-09-23T21:41:42.421Z,95.50
2022-09-23T21:44:10.535Z,95.50
2022-09-23T21:46:40.115Z,95.50
2022-09-23T21:49:09.074Z,95.50
2022-09-23T21:51:40.979Z,95.50
2022-09-23T21:54:13.957Z,95.50
2022-09-23T21:56:41.968Z,95.50
2022-09-23T21:59:10.730Z,95.50
2022-09-23T22:01:44.539Z,95.50
2022-09-23T22:04:17.079Z,95.50
2022-09-23T22:06:46.218Z,95.50
2022-09-23T22:09:16.880Z,95.50
2022-09-23T22:12:02.575Z,95.50
2022-09-23T22:14:30.661Z,95.50
2022-09-23T22:17:02.546Z,95.50
2022-09-23T22:19:35.028Z,95.50
2022-09-23T22:22:06.844Z,95.50
2022-09-23T22:24:34.975Z,95.50
2022-09-23T22:27:02.960Z,95.50
2022-09-23T22:29:48.504Z,95.50
2022-09-23T22:32:35.548Z,95.50
2022-09-23T22:35:03.564Z,95.50
2022-09-23T22:37:34.163Z,95.50
2022-09-23T22:40:02.724Z,95.50
2022-09-23T22:42:30.991Z,95.50
2022-09-23T22:44:58.932Z,95.50
2022-09-23T22:47:28.308Z,95.50
2022-09-23T22:49:56.343Z,95.50
2022-09-23T22:52:25.199Z,95.50
2022-09-23T22:54:53.546Z,95.50
2022-09-23T22:57:21.511Z,95.50
2022-09-23T22:59:49.597Z,95.50
2022-09-23T23:02:18.479Z,95.50
2022-09-23T23:04:48.435Z,95.50
2022-09-23T23:07:20.289Z,95.50
2022-09-23T23:09:48.404Z,95.50
2022-09-23T23:12:16.783Z,95.50
2022-09-23T23:14:45.069Z,95.50
2022-09-23T23:17:13.048Z,95.50
2022-09-23T23:19:41.031Z,95.50
2022-09-23T23:22:10.352Z,95.50
2022-09-23T23:24:38.339Z,95.50
2022-09-23T23:27:06.324Z,95.50
2022-09-23T23:29:34.407Z,95.50
2022-09-23T23:32:02.694Z,95.50
2022-09-23T23:34:30.716Z,95.50
2022-09-23T23:37:00.841Z,95.50
2022-09-23T23:39:30.164Z,95.50
2022-09-23T23:41:59.111Z,95.50
2022-09-23T23:44:30.526Z,95.50
2022-09-23T23:46:58.547Z,95.50
2022-09-23T23:49:26.680Z,95.50
2022-09-23T23:51:54.621Z,95.50
2022-09-23T23:54:22.642Z,95.50
2022-09-23T23:56:51.980Z,95.50
2022-09-23T23:59:20.921Z,95.50
